Aviation Digital Data Service (ADDS)

Output produced by METARs form (0731 UTC 22 August 2017)
found at http://aviationweather.gov/adds/metars/
 
KJFK 220548Z 2206/2312 21007KT P6SM SCT040 SCT250 
     FM220800 21007KT 6SM BR VCSH SCT015 SCT250 
     TEMPO 2209/2213 BKN015 
     FM221400 19010KT P6SM FEW025 BKN250 
     FM221600 19017KT P6SM SCT050 BKN250 
     FM222000 19020G26KT P6SM SCT050 BKN250 
     FM230200 21019G24KT P6SM VCSH SCT015 BKN050 
     PROB30 2303/2307 5SM TSRA BKN025 BKN050CB 
     FM230700 24014G20KT P6SM VCSH SCT025 BKN040